sensor_id;sensor_type;location;lat;lon;timestamp;pressure;altitude;pressure_sealevel;temperature;humidity
5812;BME280;2932;52.400;9.558;2023-11-19T00:01:31;100272.28;;;9.63;85.41
5812;BME280;2932;52.400;9.558;2023-11-19T00:03:57;100257.44;;;9.68;85.44
5812;BME280;2932;52.400;9.558;2023-11-19T00:06:23;100251.00;;;9.64;85.33
5812;BME280;2932;52.400;9.558;2023-11-19T00:08:48;100255.72;;;9.63;85.33
5812;BME280;2932;52.400;9.558;2023-11-19T00:11:13;100255.63;;;9.60;85.70
5812;BME280;2932;52.400;9.558;2023-11-19T00:13:40;100239.13;;;9.76;85.61
5812;BME280;2932;52.400;9.558;2023-11-19T00:16:06;100240.03;;;9.80;85.77
5812;BME280;2932;52.400;9.558;2023-11-19T00:18:32;100227.84;;;9.81;85.66
5812;BME280;2932;52.400;9.558;2023-11-19T00:20:58;100225.53;;;9.83;85.61
5812;BME280;2932;52.400;9.558;2023-11-19T00:23:23;100227.94;;;9.84;85.80
5812;BME280;2932;52.400;9.558;2023-11-19T00:25:48;100223.31;;;9.88;85.41
5812;BME280;2932;52.400;9.558;2023-11-19T00:28:14;100210.41;;;9.92;85.53
5812;BME280;2932;52.400;9.558;2023-11-19T00:30:39;100218.81;;;9.96;85.60
5812;BME280;2932;52.400;9.558;2023-11-19T00:33:06;100219.25;;;9.98;85.62
5812;BME280;2932;52.400;9.558;2023-11-19T00:35:31;100218.59;;;9.89;85.86
5812;BME280;2932;52.400;9.558;2023-11-19T00:37:58;100231.50;;;9.85;86.03
5812;BME280;2932;52.400;9.558;2023-11-19T00:40:23;100220.22;;;9.90;86.24
5812;BME280;2932;52.400;9.558;2023-11-19T00:42:49;100223.25;;;9.73;86.71
5812;BME280;2932;52.400;9.558;2023-11-19T00:45:14;100216.19;;;9.87;86.91
5812;BME280;2932;52.400;9.558;2023-11-19T00:47:40;100201.13;;;9.85;86.98
5812;BME280;2932;52.400;9.558;2023-11-19T00:50:06;100203.84;;;9.97;86.85
5812;BME280;2932;52.400;9.558;2023-11-19T00:52:34;100197.53;;;9.84;86.84
5812;BME280;2932;52.400;9.558;2023-11-19T00:54:59;100178.50;;;9.95;87.06
5812;BME280;2932;52.400;9.558;2023-11-19T00:57:25;100170.47;;;9.90;87.04
5812;BME280;2932;52.400;9.558;2023-11-19T00:59:51;100175.91;;;10.02;86.94
5812;BME280;2932;52.400;9.558;2023-11-19T01:02:17;100167.47;;;9.95;87.13
5812;BME280;2932;52.400;9.558;2023-11-19T01:04:42;100156.75;;;10.37;86.27
5812;BME280;2932;52.400;9.558;2023-11-19T01:07:09;100164.59;;;10.35;86.20
5812;BME280;2932;52.400;9.558;2023-11-19T01:09:37;100146.75;;;10.48;85.74
5812;BME280;2932;52.400;9.558;2023-11-19T01:12:03;100148.91;;;10.39;85.61
5812;BME280;2932;52.400;9.558;2023-11-19T01:14:29;100134.63;;;10.21;86.13
5812;BME280;2932;52.400;9.558;2023-11-19T01:16:54;100143.59;;;10.18;86.52
5812;BME280;2932;52.400;9.558;2023-11-19T01:19:22;100144.91;;;10.37;86.54
5812;BME280;2932;52.400;9.558;2023-11-19T01:21:50;100137.47;;;10.41;86.64
5812;BME280;2932;52.400;9.558;2023-11-19T01:24:16;100133.19;;;10.43;86.76
5812;BME280;2932;52.400;9.558;2023-11-19T01:26:41;100140.69;;;10.27;86.99
5812;BME280;2932;52.400;9.558;2023-11-19T01:29:14;100136.88;;;10.31;87.48
5812;BME280;2932;52.400;9.558;2023-11-19T01:31:45;100130.25;;;10.36;87.85
5812;BME280;2932;52.400;9.558;2023-11-19T01:34:10;100113.22;;;10.34;87.86
5812;BME280;2932;52.400;9.558;2023-11-19T01:36:36;100111.06;;;10.43;87.85
5812;BME280;2932;52.400;9.558;2023-11-19T01:39:02;100110.19;;;10.23;87.78
5812;BME280;2932;52.400;9.558;2023-11-19T01:41:29;100101.44;;;10.21;88.34
5812;BME280;2932;52.400;9.558;2023-11-19T01:43:54;100106.00;;;10.29;88.54
5812;BME280;2932;52.400;9.558;2023-11-19T01:46:19;100085.22;;;10.35;88.82
5812;BME280;2932;52.400;9.558;2023-11-19T01:48:45;100102.72;;;10.40;88.81
5812;BME280;2932;52.400;9.558;2023-11-19T01:51:12;100094.25;;;10.04;89.59
5812;BME280;2932;52.400;9.558;2023-11-19T01:53:38;100088.31;;;10.18;90.10
5812;BME280;2932;52.400;9.558;2023-11-19T01:56:07;100085.88;;;10.17;90.48
5812;BME280;2932;52.400;9.558;2023-11-19T01:58:39;100096.06;;;10.13;90.89
5812;BME280;2932;52.400;9.558;2023-11-19T02:01:06;100083.78;;;10.26;90.88
5812;BME280;2932;52.400;9.558;2023-11-19T02:03:32;100077.47;;;10.25;90.64
5812;BME280;2932;52.400;9.558;2023-11-19T02:05:59;100075.50;;;10.26;90.83
5812;BME280;2932;52.400;9.558;2023-11-19T02:08:24;100066.22;;;10.34;90.96
5812;BME280;2932;52.400;9.558;2023-11-19T02:10:49;100075.94;;;10.28;91.15
5812;BME280;2932;52.400;9.558;2023-11-19T02:13:15;100065.38;;;10.18;91.79
5812;BME280;2932;52.400;9.558;2023-11-19T02:15:41;100071.53;;;10.11;92.04
5812;BME280;2932;52.400;9.558;2023-11-19T02:18:24;100074.03;;;10.48;91.95
5812;BME280;2932;52.400;9.558;2023-11-19T02:20:53;100054.31;;;10.49;91.41
5812;BME280;2932;52.400;9.558;2023-11-19T02:23:19;100060.91;;;10.60;91.15
5812;BME280;2932;52.400;9.558;2023-11-19T02:26:12;100050.66;;;10.61;90.93
5812;BME280;2932;52.400;9.558;2023-11-19T02:28:39;100049.94;;;10.64;90.57
5812;BME280;2932;52.400;9.558;2023-11-19T02:31:05;100051.06;;;10.79;89.99
5812;BME280;2932;52.400;9.558;2023-11-19T02:33:35;100039.69;;;10.84;89.50
5812;BME280;2932;52.400;9.558;2023-11-19T02:36:00;100034.66;;;10.89;89.17
5812;BME280;2932;52.400;9.558;2023-11-19T02:38:26;100027.00;;;10.83;89.02
5812;BME280;2932;52.400;9.558;2023-11-19T02:40:51;100030.22;;;10.85;89.35
5812;BME280;2932;52.400;9.558;2023-11-19T02:43:17;100023.94;;;10.68;89.82
5812;BME280;2932;52.400;9.558;2023-11-19T02:45:43;100016.66;;;10.60;90.17
5812;BME280;2932;52.400;9.558;2023-11-19T02:48:11;100015.59;;;10.84;90.42
5812;BME280;2932;52.400;9.558;2023-11-19T02:50:36;99994.25;;;10.85;90.40
5812;BME280;2932;52.400;9.558;2023-11-19T02:53:02;99992.78;;;10.91;90.04
5812;BME280;2932;52.400;9.558;2023-11-19T02:55:27;99992.19;;;10.82;90.50
5812;BME280;2932;52.400;9.558;2023-11-19T02:57:56;99992.59;;;10.99;90.26
5812;BME280;2932;52.400;9.558;2023-11-19T03:00:24;99986.59;;;10.97;90.21
5812;BME280;2932;52.400;9.558;2023-11-19T03:02:51;99987.84;;;11.00;90.63
5812;BME280;2932;52.400;9.558;2023-11-19T03:05:30;99983.53;;;11.22;90.58
5812;BME280;2932;52.400;9.558;2023-11-19T03:07:56;99979.91;;;10.98;90.76
5812;BME280;2932;52.400;9.558;2023-11-19T03:10:22;99969.13;;;11.13;91.05
5812;BME280;2932;52.400;9.558;2023-11-19T03:12:47;99969.84;;;11.10;91.32
5812;BME280;2932;52.400;9.558;2023-11-19T03:15:12;99972.91;;;10.85;91.81
5812;BME280;2932;52.400;9.558;2023-11-19T03:17:38;99978.59;;;10.92;91.85
5812;BME280;2932;52.400;9.558;2023-11-19T03:20:08;99976.84;;;11.03;91.70
5812;BME280;2932;52.400;9.558;2023-11-19T03:22:41;99971.59;;;11.18;91.96
5812;BME280;2932;52.400;9.558;2023-11-19T03:25:08;99961.91;;;11.08;92.01
5812;BME280;2932;52.400;9.558;2023-11-19T03:27:37;99959.63;;;11.33;91.36
5812;BME280;2932;52.400;9.558;2023-11-19T03:30:05;99967.19;;;11.36;91.29
5812;BME280;2932;52.400;9.558;2023-11-19T03:32:31;99967.53;;;11.54;91.02
5812;BME280;2932;52.400;9.558;2023-11-19T03:34:57;99961.50;;;11.48;90.92
5812;BME280;2932;52.400;9.558;2023-11-19T03:37:23;99960.69;;;11.48;90.84
5812;BME280;2932;52.400;9.558;2023-11-19T03:39:49;99954.69;;;11.68;90.69
5812;BME280;2932;52.400;9.558;2023-11-19T03:42:14;99959.56;;;11.75;90.65
5812;BME280;2932;52.400;9.558;2023-11-19T03:44:39;99959.56;;;11.75;90.46
5812;BME280;2932;52.400;9.558;2023-11-19T03:47:05;99952.38;;;11.70;90.78
5812;BME280;2932;52.400;9.558;2023-11-19T03:49:31;99938.31;;;11.60;91.05
5812;BME280;2932;52.400;9.558;2023-11-19T03:51:56;99924.13;;;11.84;91.10
5812;BME280;2932;52.400;9.558;2023-11-19T03:54:21;99920.72;;;11.94;91.06
5812;BME280;2932;52.400;9.558;2023-11-19T03:56:48;99919.50;;;11.92;91.32
5812;BME280;2932;52.400;9.558;2023-11-19T03:59:13;99918.03;;;12.01;91.03
5812;BME280;2932;52.400;9.558;2023-11-19T04:01:40;99923.88;;;12.19;90.87
5812;BME280;2932;52.400;9.558;2023-11-19T04:04:05;99920.28;;;12.19;91.10
5812;BME280;2932;52.400;9.558;2023-11-19T04:06:31;99912.59;;;12.35;90.55
5812;BME280;2932;52.400;9.558;2023-11-19T04:08:56;99910.84;;;12.53;90.22
5812;BME280;2932;52.400;9.558;2023-11-19T04:11:22;99912.59;;;12.65;90.00
5812;BME280;2932;52.400;9.558;2023-11-19T04:13:47;99911.66;;;12.54;89.78
5812;BME280;2932;52.400;9.558;2023-11-19T04:16:13;99921.44;;;12.44;90.36
5812;BME280;2932;52.400;9.558;2023-11-19T04:18:39;99912.41;;;12.51;91.77
5812;BME280;2932;52.400;9.558;2023-11-19T04:21:08;99917.94;;;12.51;91.89
5812;BME280;2932;52.400;9.558;2023-11-19T04:23:33;99933.16;;;12.60;92.02
5812;BME280;2932;52.400;9.558;2023-11-19T04:26:02;99927.69;;;12.67;92.65
5812;BME280;2932;52.400;9.558;2023-11-19T04:28:27;99935.50;;;12.58;93.19
5812;BME280;2932;52.400;9.558;2023-11-19T04:30:52;99938.44;;;12.39;93.84
5812;BME280;2932;52.400;9.558;2023-11-19T04:33:18;99931.69;;;12.70;93.89
5812;BME280;2932;52.400;9.558;2023-11-19T04:35:43;99928.13;;;12.69;93.50
5812;BME280;2932;52.400;9.558;2023-11-19T04:38:08;99933.19;;;12.64;94.11
5812;BME280;2932;52.400;9.558;2023-11-19T04:40:34;99927.03;;;12.78;93.83
5812;BME280;2932;52.400;9.558;2023-11-19T04:42:59;99927.44;;;12.80;93.43
5812;BME280;2932;52.400;9.558;2023-11-19T04:45:24;99931.00;;;12.80;93.45
5812;BME280;2932;52.400;9.558;2023-11-19T04:47:50;99925.97;;;12.89;93.34
5812;BME280;2932;52.400;9.558;2023-11-19T04:50:15;99927.84;;;12.78;93.48
5812;BME280;2932;52.400;9.558;2023-11-19T04:52:40;99929.03;;;12.81;93.52
5812;BME280;2932;52.400;9.558;2023-11-19T04:55:07;99913.97;;;12.78;93.69
5812;BME280;2932;52.400;9.558;2023-11-19T04:57:33;99912.88;;;12.90;94.21
5812;BME280;2932;52.400;9.558;2023-11-19T04:59:58;99919.63;;;12.89;94.42
5812;BME280;2932;52.400;9.558;2023-11-19T05:02:24;99909.44;;;13.00;94.01
5812;BME280;2932;52.400;9.558;2023-11-19T05:04:49;99905.31;;;13.20;93.62
5812;BME280;2932;52.400;9.558;2023-11-19T05:07:14;99897.69;;;13.14;93.72
5812;BME280;2932;52.400;9.558;2023-11-19T05:09:40;99899.03;;;13.27;93.29
5812;BME280;2932;52.400;9.558;2023-11-19T05:12:06;99883.50;;;13.19;92.90
5812;BME280;2932;52.400;9.558;2023-11-19T05:14:33;99882.00;;;13.32;92.75
5812;BME280;2932;52.400;9.558;2023-11-19T05:16:59;99892.84;;;13.44;92.06
5812;BME280;2932;52.400;9.558;2023-11-19T05:19:24;99881.75;;;13.44;91.65
5812;BME280;2932;52.400;9.558;2023-11-19T05:21:49;99865.84;;;13.41;91.95
5812;BME280;2932;52.400;9.558;2023-11-19T05:24:17;99882.16;;;13.46;91.87
5812;BME280;2932;52.400;9.558;2023-11-19T05:26:42;99884.06;;;13.39;91.63
5812;BME280;2932;52.400;9.558;2023-11-19T05:29:08;99882.28;;;13.20;91.58
5812;BME280;2932;52.400;9.558;2023-11-19T05:31:33;99892.84;;;13.44;91.60
5812;BME280;2932;52.400;9.558;2023-11-19T05:33:59;99893.59;;;13.38;91.00
5812;BME280;2932;52.400;9.558;2023-11-19T05:36:24;99889.78;;;13.56;90.88
5812;BME280;2932;52.400;9.558;2023-11-19T05:38:49;99893.53;;;13.34;90.96
5812;BME280;2932;52.400;9.558;2023-11-19T05:41:15;99884.94;;;13.46;90.48
5812;BME280;2932;52.400;9.558;2023-11-19T05:43:40;99895.63;;;13.44;90.53
5812;BME280;2932;52.400;9.558;2023-11-19T05:46:06;99896.50;;;13.52;90.64
5812;BME280;2932;52.400;9.558;2023-11-19T05:48:32;99893.03;;;13.65;90.49
5812;BME280;2932;52.400;9.558;2023-11-19T05:50:57;99896.00;;;13.43;90.64
5812;BME280;2932;52.400;9.558;2023-11-19T05:53:22;99887.50;;;13.69;90.00
5812;BME280;2932;52.400;9.558;2023-11-19T05:55:48;99884.28;;;13.63;89.92
5812;BME280;2932;52.400;9.558;2023-11-19T05:58:26;99893.78;;;13.59;89.72
5812;BME280;2932;52.400;9.558;2023-11-19T06:00:54;99886.06;;;13.42;90.46
5812;BME280;2932;52.400;9.558;2023-11-19T06:03:20;99885.44;;;13.62;90.21
5812;BME280;2932;52.400;9.558;2023-11-19T06:05:47;99874.72;;;13.57;89.79
5812;BME280;2932;52.400;9.558;2023-11-19T06:08:13;99888.91;;;13.45;89.93
5812;BME280;2932;52.400;9.558;2023-11-19T06:10:40;99883.75;;;13.47;90.12
5812;BME280;2932;52.400;9.558;2023-11-19T06:13:06;99890.53;;;13.50;90.32
5812;BME280;2932;52.400;9.558;2023-11-19T06:15:32;99891.59;;;13.38;90.47
5812;BME280;2932;52.400;9.558;2023-11-19T06:17:58;99912.34;;;13.48;90.04
5812;BME280;2932;52.400;9.558;2023-11-19T06:20:25;99898.50;;;13.55;90.14
5812;BME280;2932;52.400;9.558;2023-11-19T06:22:52;99902.47;;;13.54;89.56
5812;BME280;2932;52.400;9.558;2023-11-19T06:25:18;99902.91;;;13.59;89.60
5812;BME280;2932;52.400;9.558;2023-11-19T06:27:43;99905.63;;;13.52;89.73
5812;BME280;2932;52.400;9.558;2023-11-19T06:30:09;99904.50;;;13.60;89.48
5812;BME280;2932;52.400;9.558;2023-11-19T06:32:35;99900.91;;;13.56;89.17
5812;BME280;2932;52.400;9.558;2023-11-19T06:35:00;99901.72;;;13.60;89.29
5812;BME280;2932;52.400;9.558;2023-11-19T06:37:25;99896.16;;;13.60;88.94
5812;BME280;2932;52.400;9.558;2023-11-19T06:39:52;99911.53;;;13.47;89.18
5812;BME280;2932;52.400;9.558;2023-11-19T06:42:17;99916.88;;;13.26;89.57
5812;BME280;2932;52.400;9.558;2023-11-19T06:44:43;99910.31;;;13.45;89.46
5812;BME280;2932;52.400;9.558;2023-11-19T06:47:08;99919.34;;;13.34;89.57
5812;BME280;2932;52.400;9.558;2023-11-19T06:49:33;99908.34;;;13.45;89.43
5812;BME280;2932;52.400;9.558;2023-11-19T06:51:59;99920.94;;;13.35;89.33
5812;BME280;2932;52.400;9.558;2023-11-19T06:54:24;99923.75;;;13.39;89.81
5812;BME280;2932;52.400;9.558;2023-11-19T06:56:50;99935.47;;;13.22;90.03
5812;BME280;2932;52.400;9.558;2023-11-19T06:59:15;99946.63;;;13.25;90.18
5812;BME280;2932;52.400;9.558;2023-11-19T07:01:41;99938.31;;;13.25;90.52
5812;BME280;2932;52.400;9.558;2023-11-19T07:04:10;99938.03;;;13.38;90.40
5812;BME280;2932;52.400;9.558;2023-11-19T07:06:36;99941.53;;;13.31;90.44
5812;BME280;2932;52.400;9.558;2023-11-19T07:09:02;99952.59;;;13.27;90.12
5812;BME280;2932;52.400;9.558;2023-11-19T07:11:46;99947.44;;;13.26;90.27
5812;BME280;2932;52.400;9.558;2023-11-19T07:14:11;99951.38;;;13.25;90.22
5812;BME280;2932;52.400;9.558;2023-11-19T07:16:37;99945.16;;;13.35;89.74
5812;BME280;2932;52.400;9.558;2023-11-19T07:19:04;99958.63;;;13.33;89.97
5812;BME280;2932;52.400;9.558;2023-11-19T07:21:30;99958.72;;;13.40;89.11
5812;BME280;2932;52.400;9.558;2023-11-19T07:23:56;99963.34;;;13.29;88.79
5812;BME280;2932;52.400;9.558;2023-11-19T07:26:22;99957.75;;;13.25;88.93
5812;BME280;2932;52.400;9.558;2023-11-19T07:28:48;99963.38;;;13.32;88.74
5812;BME280;2932;52.400;9.558;2023-11-19T07:31:13;99961.28;;;13.19;88.15
5812;BME280;2932;52.400;9.558;2023-11-19T07:33:41;99967.59;;;13.16;87.64
5812;BME280;2932;52.400;9.558;2023-11-19T07:36:08;99972.81;;;13.24;87.16
5812;BME280;2932;52.400;9.558;2023-11-19T07:38:34;99985.69;;;13.06;86.99
5812;BME280;2932;52.400;9.558;2023-11-19T07:40:59;99970.47;;;13.26;86.44
5812;BME280;2932;52.400;9.558;2023-11-19T07:43:24;99972.47;;;13.29;85.89
5812;BME280;2932;52.400;9.558;2023-11-19T07:45:50;99968.22;;;13.06;86.10
5812;BME280;2932;52.400;9.558;2023-11-19T07:48:15;99974.84;;;12.97;86.20
5812;BME280;2932;52.400;9.558;2023-11-19T07:50:40;99965.81;;;13.04;86.39
5812;BME280;2932;52.400;9.558;2023-11-19T07:53:07;99976.75;;;12.90;86.93
5812;BME280;2932;52.400;9.558;2023-11-19T07:55:33;99977.34;;;13.06;86.75
5812;BME280;2932;52.400;9.558;2023-11-19T07:57:58;99989.88;;;12.93;86.46
5812;BME280;2932;52.400;9.558;2023-11-19T08:00:23;99987.16;;;12.96;86.37
5812;BME280;2932;52.400;9.558;2023-11-19T08:02:49;99987.22;;;13.03;85.47
5812;BME280;2932;52.400;9.558;2023-11-19T08:05:14;99996.16;;;13.20;84.77
5812;BME280;2932;52.400;9.558;2023-11-19T08:07:39;99989.84;;;13.19;84.04
5812;BME280;2932;52.400;9.558;2023-11-19T08:10:05;99987.94;;;13.27;84.05
5812;BME280;2932;52.400;9.558;2023-11-19T08:12:35;99987.09;;;13.23;83.56
5812;BME280;2932;52.400;9.558;2023-11-19T08:15:02;99985.84;;;13.20;83.64
5812;BME280;2932;52.400;9.558;2023-11-19T08:17:27;99991.41;;;13.17;83.52
5812;BME280;2932;52.400;9.558;2023-11-19T08:19:52;99981.09;;;13.21;83.42
5812;BME280;2932;52.400;9.558;2023-11-19T08:22:17;99989.44;;;13.21;82.99
5812;BME280;2932;52.400;9.558;2023-11-19T08:24:43;99992.88;;;13.44;82.65
5812;BME280;2932;52.400;9.558;2023-11-19T08:27:08;99998.81;;;13.43;82.37
5812;BME280;2932;52.400;9.558;2023-11-19T08:29:34;99994.78;;;13.37;82.21
5812;BME280;2932;52.400;9.558;2023-11-19T08:32:00;99992.00;;;13.37;82.26
5812;BME280;2932;52.400;9.558;2023-11-19T08:34:27;100003.75;;;13.23;82.22
5812;BME280;2932;52.400;9.558;2023-11-19T08:36:52;99999.28;;;13.15;82.59
5812;BME280;2932;52.400;9.558;2023-11-19T08:39:20;100011.66;;;13.21;82.43
5812;BME280;2932;52.400;9.558;2023-11-19T08:41:49;100005.91;;;13.37;81.76
5812;BME280;2932;52.400;9.558;2023-11-19T08:44:15;100004.69;;;13.34;81.86
5812;BME280;2932;52.400;9.558;2023-11-19T08:46:50;99980.00;;;13.29;81.24
5812;BME280;2932;52.400;9.558;2023-11-19T08:49:15;99995.25;;;13.42;81.49
5812;BME280;2932;52.400;9.558;2023-11-19T08:51:40;100007.34;;;13.60;81.02
5812;BME280;2932;52.400;9.558;2023-11-19T08:54:06;100004.97;;;13.59;81.03
5812;BME280;2932;52.400;9.558;2023-11-19T08:56:32;99995.97;;;13.76;80.53
5812;BME280;2932;52.400;9.558;2023-11-19T08:58:59;99998.97;;;14.01;80.21
5812;BME280;2932;52.400;9.558;2023-11-19T09:01:25;100001.31;;;13.92;79.86
5812;BME280;2932;52.400;9.558;2023-11-19T09:03:50;99996.56;;;13.96;79.62
5812;BME280;2932;52.400;9.558;2023-11-19T09:06:15;100003.75;;;13.60;79.68
5812;BME280;2932;52.400;9.558;2023-11-19T09:08:42;100014.16;;;13.66;80.57
5812;BME280;2932;52.400;9.558;2023-11-19T09:11:08;100007.78;;;13.66;80.63
5812;BME280;2932;52.400;9.558;2023-11-19T09:13:34;100010.56;;;13.66;80.43
5812;BME280;2932;52.400;9.558;2023-11-19T09:15:59;100024.66;;;13.84;80.40
5812;BME280;2932;52.400;9.558;2023-11-19T09:18:28;100025.00;;;13.79;79.87
5812;BME280;2932;52.400;9.558;2023-11-19T09:20:54;100030.25;;;13.87;79.67
5812;BME280;2932;52.400;9.558;2023-11-19T09:23:19;100024.94;;;13.72;80.18
5812;BME280;2932;52.400;9.558;2023-11-19T09:25:45;100019.13;;;13.87;79.76
5812;BME280;2932;52.400;9.558;2023-11-19T09:28:10;100028.59;;;13.79;79.75
5812;BME280;2932;52.400;9.558;2023-11-19T09:30:35;100025.28;;;13.66;80.38
5812;BME280;2932;52.400;9.558;2023-11-19T09:33:01;100041.09;;;13.59;80.85
5812;BME280;2932;52.400;9.558;2023-11-19T09:35:26;100033.28;;;13.72;80.64
5812;BME280;2932;52.400;9.558;2023-11-19T09:37:51;100030.63;;;13.86;80.09
5812;BME280;2932;52.400;9.558;2023-11-19T09:40:16;100037.81;;;13.87;79.89
5812;BME280;2932;52.400;9.558;2023-11-19T09:42:44;100028.59;;;13.79;79.83
5812;BME280;2932;52.400;9.558;2023-11-19T09:45:14;100027.59;;;14.01;79.58
5812;BME280;2932;52.400;9.558;2023-11-19T09:47:45;100020.09;;;14.09;78.96
5812;BME280;2932;52.400;9.558;2023-11-19T09:50:18;100049.72;;;14.31;77.68
5812;BME280;2932;52.400;9.558;2023-11-19T09:52:45;100026.84;;;14.52;77.38
5812;BME280;2932;52.400;9.558;2023-11-19T09:55:11;100030.69;;;14.37;77.37
5812;BME280;2932;52.400;9.558;2023-11-19T09:57:38;100020.91;;;14.57;76.99
5812;BME280;2932;52.400;9.558;2023-11-19T10:00:05;100015.97;;;14.40;76.86
5812;BME280;2932;52.400;9.558;2023-11-19T10:02:33;100045.28;;;14.23;76.91
5812;BME280;2932;52.400;9.558;2023-11-19T10:05:09;100023.63;;;14.50;76.06
5812;BME280;2932;52.400;9.558;2023-11-19T10:07:35;100035.25;;;14.63;75.95
5812;BME280;2932;52.400;9.558;2023-11-19T10:10:01;100027.41;;;14.24;76.92
5812;BME280;2932;52.400;9.558;2023-11-19T10:12:28;100034.94;;;13.80;77.63
5812;BME280;2932;52.400;9.558;2023-11-19T10:14:56;100029.69;;;14.15;77.61
5812;BME280;2932;52.400;9.558;2023-11-19T10:17:27;100033.97;;;14.06;78.08
5812;BME280;2932;52.400;9.558;2023-11-19T10:19:54;100035.44;;;13.89;78.20
5812;BME280;2932;52.400;9.558;2023-11-19T10:22:19;100026.53;;;13.73;79.12
5812;BME280;2932;52.400;9.558;2023-11-19T10:24:47;100044.47;;;13.79;79.46
5812;BME280;2932;52.400;9.558;2023-11-19T10:27:25;100027.56;;;13.94;79.18
5812;BME280;2932;52.400;9.558;2023-11-19T10:29:51;100028.81;;;14.04;78.58
5812;BME280;2932;52.400;9.558;2023-11-19T10:34:52;100017.81;;;14.18;77.03
5812;BME280;2932;52.400;9.558;2023-11-19T10:37:35;100020.19;;;14.16;77.77
5812;BME280;2932;52.400;9.558;2023-11-19T10:40:02;100027.78;;;14.23;77.71
5812;BME280;2932;52.400;9.558;2023-11-19T10:42:30;100022.28;;;14.30;77.58
5812;BME280;2932;52.400;9.558;2023-11-19T10:44:55;100018.47;;;14.49;76.85
5812;BME280;2932;52.400;9.558;2023-11-19T10:47:30;100009.03;;;14.64;76.39
5812;BME280;2932;52.400;9.558;2023-11-19T10:49:59;100020.88;;;14.54;76.21
5812;BME280;2932;52.400;9.558;2023-11-19T10:52:25;100022.81;;;14.46;76.56
5812;BME280;2932;52.400;9.558;2023-11-19T10:54:54;100014.88;;;14.48;76.94
5812;BME280;2932;52.400;9.558;2023-11-19T10:57:26;100010.91;;;14.49;77.02
5812;BME280;2932;52.400;9.558;2023-11-19T11:00:01;100038.56;;;14.79;76.14
5812;BME280;2932;52.400;9.558;2023-11-19T11:02:28;100013.81;;;14.67;76.08
5812;BME280;2932;52.400;9.558;2023-11-19T11:04:55;100015.34;;;14.57;76.25
5812;BME280;2932;52.400;9.558;2023-11-19T11:07:21;100013.00;;;14.66;76.41
5812;BME280;2932;52.400;9.558;2023-11-19T11:09:48;100020.25;;;14.82;76.05
5812;BME280;2932;52.400;9.558;2023-11-19T11:12:15;100017.88;;;14.84;76.09
5812;BME280;2932;52.400;9.558;2023-11-19T11:14:43;100028.72;;;14.99;75.52
5812;BME280;2932;52.400;9.558;2023-11-19T11:17:11;100006.13;;;15.29;74.49
5812;BME280;2932;52.400;9.558;2023-11-19T11:19:37;100023.78;;;15.58;73.28
5812;BME280;2932;52.400;9.558;2023-11-19T11:22:04;100016.91;;;15.34;73.24
5812;BME280;2932;52.400;9.558;2023-11-19T11:24:40;100035.13;;;15.07;74.09
5812;BME280;2932;52.400;9.558;2023-11-19T11:27:54;100024.81;;;15.15;74.68
5812;BME280;2932;52.400;9.558;2023-11-19T11:30:35;100018.06;;;15.26;73.42
5812;BME280;2932;52.400;9.558;2023-11-19T11:33:32;100008.09;;;15.15;73.42
5812;BME280;2932;52.400;9.558;2023-11-19T11:36:18;100032.16;;;15.58;73.27
5812;BME280;2932;52.400;9.558;2023-11-19T11:38:47;100031.78;;;14.77;74.27
5812;BME280;2932;52.400;9.558;2023-11-19T11:41:15;100034.81;;;14.54;75.36
5812;BME280;2932;52.400;9.558;2023-11-19T11:43:48;100036.94;;;14.23;75.95
5812;BME280;2932;52.400;9.558;2023-11-19T11:49:05;100020.69;;;14.29;76.46
5812;BME280;2932;52.400;9.558;2023-11-19T11:54:09;100021.31;;;14.59;75.98
5812;BME280;2932;52.400;9.558;2023-11-19T11:56:38;100030.63;;;14.88;74.80
5812;BME280;2932;52.400;9.558;2023-11-19T11:59:19;100020.75;;;15.01;74.40
5812;BME280;2932;52.400;9.558;2023-11-19T12:02:00;100021.25;;;15.28;73.45
5812;BME280;2932;52.400;9.558;2023-11-19T12:04:26;100047.84;;;15.05;73.70
5812;BME280;2932;52.400;9.558;2023-11-19T12:07:11;100026.72;;;15.00;74.59
5812;BME280;2932;52.400;9.558;2023-11-19T12:09:40;100029.59;;;15.14;73.34
5812;BME280;2932;52.400;9.558;2023-11-19T12:12:28;100030.63;;;14.88;74.39
5812;BME280;2932;52.400;9.558;2023-11-19T12:15:05;100027.41;;;14.79;74.37
5812;BME280;2932;52.400;9.558;2023-11-19T12:20:00;100024.63;;;14.83;74.05
5812;BME280;2932;52.400;9.558;2023-11-19T12:22:26;100019.63;;;14.48;74.99
5812;BME280;2932;52.400;9.558;2023-11-19T12:24:54;100028.88;;;14.59;74.83
5812;BME280;2932;52.400;9.558;2023-11-19T12:27:19;100030.16;;;14.72;74.40
5812;BME280;2932;52.400;9.558;2023-11-19T12:29:47;100031.94;;;14.43;74.69
5812;BME280;2932;52.400;9.558;2023-11-19T12:32:12;100032.06;;;14.61;75.40
5812;BME280;2932;52.400;9.558;2023-11-19T12:34:38;100032.72;;;14.44;74.88
5812;BME280;2932;52.400;9.558;2023-11-19T12:37:04;100030.38;;;14.49;75.38
5812;BME280;2932;52.400;9.558;2023-11-19T12:39:30;100037.84;;;14.38;75.84
5812;BME280;2932;52.400;9.558;2023-11-19T12:41:56;100029.81;;;14.26;75.98
5812;BME280;2932;52.400;9.558;2023-11-19T12:44:24;100055.56;;;14.19;76.50
5812;BME280;2932;52.400;9.558;2023-11-19T12:49:26;100020.59;;;14.18;76.44
5812;BME280;2932;52.400;9.558;2023-11-19T12:51:51;100021.28;;;14.08;76.99
5812;BME280;2932;52.400;9.558;2023-11-19T12:54:17;100017.56;;;13.90;77.39
5812;BME280;2932;52.400;9.558;2023-11-19T12:56:53;100033.94;;;13.98;77.30
5812;BME280;2932;52.400;9.558;2023-11-19T12:59:18;100014.50;;;14.06;77.05
5812;BME280;2932;52.400;9.558;2023-11-19T13:01:56;100014.22;;;13.74;77.43
5812;BME280;2932;52.400;9.558;2023-11-19T13:04:22;100013.59;;;13.91;77.62
5812;BME280;2932;52.400;9.558;2023-11-19T13:06:49;100018.44;;;14.01;77.72
5812;BME280;2932;52.400;9.558;2023-11-19T13:09:27;100010.09;;;13.97;77.90
5812;BME280;2932;52.400;9.558;2023-11-19T13:11:54;100019.00;;;13.73;78.69
5812;BME280;2932;52.400;9.558;2023-11-19T13:14:20;100008.81;;;13.88;78.86
5812;BME280;2932;52.400;9.558;2023-11-19T13:16:46;100004.13;;;13.95;78.84
5812;BME280;2932;52.400;9.558;2023-11-19T13:19:12;100009.50;;;13.78;79.08
5812;BME280;2932;52.400;9.558;2023-11-19T13:21:38;100003.97;;;13.81;79.00
5812;BME280;2932;52.400;9.558;2023-11-19T13:24:08;100002.38;;;13.80;79.47
5812;BME280;2932;52.400;9.558;2023-11-19T13:26:33;99996.41;;;13.78;79.56
5812;BME280;2932;52.400;9.558;2023-11-19T13:29:00;99994.22;;;13.98;78.56
5812;BME280;2932;52.400;9.558;2023-11-19T13:31:25;99995.19;;;13.76;79.31